Time;durP1;ratioP1;P1;durP2;ratioP2;P2;SDS_P1;SDS_P2;PMS_P1;PMS_P2;Temp;Humidity;BMP_temperature;BMP_pressure;BME280_temperature;BME280_humidity;BME280_pressure;Samples;Min_cycle;Max_cycle;Signal;HPM_P1;HPM_P2
2022/12/05 00:01:17;;;;;;;;;;;;;;;;;;5077395;28;4805;-61
2022/12/05 00:03:42;;;;;;;;;;;;;;;;;;5076883;28;5174;-62
2022/12/05 00:06:08;;;;;;;;;;;;;;;;;;5076408;28;5158;-62
2022/12/05 00:08:33;;;;;;;;;;;;;;;;;;5088435;28;1092;-62
2022/12/05 00:10:58;;;;;;;;;;;;;;;;;;5086941;28;5050;-62
2022/12/05 00:13:23;;;;;;;;;;;;;;;;;;5085356;28;5447;-62
2022/12/05 00:15:48;;;;;;;;;;;;;;;;;;5074796;28;4905;-62
2022/12/05 00:18:14;;;;;;;;;;;;;;;;;;5088686;28;5085;-62
2022/12/05 00:20:45;;;;;;;;;;;;;;;;;;5080533;28;3383;-62
2022/12/05 00:23:11;;;;;;;;;;;;;;;;;;5071407;28;4620;-63
2022/12/05 00:25:36;;;;;;;;;;;;;;;;;;5068372;28;5196;-62
2022/12/05 00:28:01;;;;;;;;;;;;;;;;;;5072105;28;5145;-63
2022/12/05 00:30:26;;;;;;;;;;;;;;;;;;5069875;28;5340;-62
2022/12/05 00:32:52;;;;;;;;;;;;;;;;;;5077115;28;4616;-62
2022/12/05 00:35:17;;;;;;;;;;;;;;;;;;5076435;28;1541;-62
2022/12/05 00:37:42;;;;;;;;;;;;;;;;;;5076814;28;4607;-62
2022/12/05 00:40:08;;;;;;;;;;;;;;;;;;5081234;28;4621;-62
2022/12/05 00:42:33;;;;;;;;;;;;;;;;;;5080244;28;5005;-62
2022/12/05 00:44:58;;;;;;;;;;;;;;;;;;5078689;28;5326;-62
2022/12/05 00:47:23;;;;;;;;;;;;;;;;;;5086914;28;1191;-63
2022/12/05 00:49:49;;;;;;;;;;;;;;;;;;5086574;28;5038;-62
2022/12/05 00:52:14;;;;;;;;;;;;;;;;;;5083047;28;4961;-61
2022/12/05 00:54:39;;;;;;;;;;;;;;;;;;5077952;28;5052;-60
2022/12/05 00:57:04;;;;;;;;;;;;;;;;;;5074019;28;5161;-61
2022/12/05 00:59:30;;;;;;;;;;;;;;;;;;5068043;28;3281;-61
2022/12/05 01:01:55;;;;;;;;;;;;;;;;;;5076909;28;5429;-60
2022/12/05 01:04:21;;;;;;;;;;;;;;;;;;5071240;28;4924;-60
2022/12/05 01:06:47;;;;;;;;;;;;;;;;;;5079037;28;4618;-61
2022/12/05 01:09:12;;;;;;;;;;;;;;;;;;5069343;28;4983;-61
2022/12/05 01:11:38;;;;;;;;;;;;;;;;;;5088727;28;1323;-60
2022/12/05 01:14:03;;;;;;;;;;;;;;;;;;5079472;28;4562;-60
2022/12/05 01:16:30;;;;;;;;;;;;;;;;;;5070529;28;5029;-60
2022/12/05 01:18:55;;;;;;;;;;;;;;;;;;5076332;28;4966;-60
2022/12/05 01:21:21;;;;;;;;;;;;;;;;;;5077246;28;4589;-60
2022/12/05 01:23:46;;;;;;;;;;;;;;;;;;5085446;28;4957;-60
2022/12/05 01:26:12;;;;;;;;;;;;;;;;;;5074858;28;1453;-59
2022/12/05 01:28:37;;;;;;;;;;;;;;;;;;5078543;28;4602;-60
2022/12/05 01:31:07;;;;;;;;;;;;;;;;;;5081402;28;4704;-61
2022/12/05 01:33:33;;;;;;;;;;;;;;;;;;5083986;28;4641;-61
2022/12/05 01:35:58;;;;;;;;;;;;;;;;;;5074254;28;4744;-60
2022/12/05 01:38:23;;;;;;;;;;;;;;;;;;5082418;28;1283;-62
2022/12/05 01:40:49;;;;;;;;;;;;;;;;;;5076671;28;4821;-62
2022/12/05 01:43:14;;;;;;;;;;;;;;;;;;5083450;28;4846;-63
2022/12/05 01:45:40;;;;;;;;;;;;;;;;;;5117466;28;5329;-62
2022/12/05 01:48:17;;;;;;;;;;;;;;;;;;5086853;28;4625;-62
2022/12/05 01:50:42;;;;;;;;;;;;;;;;;;5086335;28;1311;-62
2022/12/05 01:53:07;;;;;;;;;;;;;;;;;;5078492;28;4753;-63
2022/12/05 01:55:33;;;;;;;;;;;;;;;;;;5075521;28;4440;-63
2022/12/05 01:57:58;;;;;;;;;;;;;;;;;;5084703;28;5382;-60
2022/12/05 02:00:23;;;;;;;;;;;;;;;;;;5083721;28;5504;-62
2022/12/05 02:02:53;;;;;;;;;;;;;;;;;;5071563;28;5140;-62
2022/12/05 02:05:26;;;;;;;;;;;;;;;;;;5091366;28;1692;-63
2022/12/05 02:07:51;;;;;;;;;;;;;;;;;;5071471;27;5043;-62
2022/12/05 02:10:17;;;;;;;;;;;;;;;;;;5067150;28;4986;-61
2022/12/05 02:12:42;;;;;;;;;;;;;;;;;;5082881;28;4936;-60
2022/12/05 02:15:22;;;;;;;;;;;;;;;;;;5068568;28;4898;-62
2022/12/05 02:17:58;;;;;;;;;;;;;;;;;;5079970;28;4937;-61
2022/12/05 02:20:36;;;;;;;;;;;;;;;;;;5087813;28;3449;-62
2022/12/05 02:23:21;;;;;;;;;;;;;;;;;;5078412;28;4819;-62
2022/12/05 02:25:46;;;;;;;;;;;;;;;;;;5086705;28;5124;-62
2022/12/05 02:28:26;;;;;;;;;;;;;;;;;;5071067;28;4604;-62
2022/12/05 02:30:53;;;;;;;;;;;;;;;;;;5077871;28;4926;-62
2022/12/05 02:33:18;;;;;;;;;;;;;;;;;;5084241;28;5079;-62
2022/12/05 02:35:44;;;;;;;;;;;;;;;;;;5079547;28;1448;-62
2022/12/05 02:38:09;;;;;;;;;;;;;;;;;;5090361;28;5307;-62
2022/12/05 02:40:40;;;;;;;;;;;;;;;;;;5072659;28;5022;-62
2022/12/05 02:43:17;;;;;;;;;;;;;;;;;;5093413;28;4928;-62
2022/12/05 02:45:42;;;;;;;;;;;;;;;;;;5082086;28;5530;-62
2022/12/05 02:48:07;;;;;;;;;;;;;;;;;;5088251;28;5181;-62
2022/12/05 02:50:33;;;;;;;;;;;;;;;;;;5075209;28;1159;-62
2022/12/05 02:53:00;;;;;;;;;;;;;;;;;;5084514;28;5072;-62
2022/12/05 02:55:25;;;;;;;;;;;;;;;;;;5073905;28;5050;-61
2022/12/05 02:57:53;;;;;;;;;;;;;;;;;;5082552;28;5114;-62
2022/12/05 03:00:18;;;;;;;;;;;;;;;;;;5083244;28;5244;-62
2022/12/05 03:02:43;;;;;;;;;;;;;;;;;;5077777;28;3288;-62
2022/12/05 03:05:21;;;;;;;;;;;;;;;;;;5082034;28;5116;-62
2022/12/05 03:07:47;;;;;;;;;;;;;;;;;;5083393;28;5006;-62
2022/12/05 03:10:12;;;;;;;;;;;;;;;;;;5086448;28;4897;-62
2022/12/05 03:12:38;;;;;;;;;;;;;;;;;;5088186;28;5047;-62
2022/12/05 03:15:04;;;;;;;;;;;;;;;;;;5069232;28;5020;-62
2022/12/05 03:17:31;;;;;;;;;;;;;;;;;;5075211;28;3348;-62
2022/12/05 03:19:59;;;;;;;;;;;;;;;;;;5079465;28;4998;-61
2022/12/05 03:22:26;;;;;;;;;;;;;;;;;;5088179;28;5053;-62
2022/12/05 03:24:52;;;;;;;;;;;;;;;;;;5074830;28;5216;-62
2022/12/05 03:27:32;;;;;;;;;;;;;;;;;;5087446;28;5068;-61
2022/12/05 03:30:00;;;;;;;;;;;;;;;;;;5096399;28;5060;-61
2022/12/05 03:32:26;;;;;;;;;;;;;;;;;;5089700;28;3318;-61
2022/12/05 03:35:01;;;;;;;;;;;;;;;;;;5083273;28;4502;-62
2022/12/05 03:37:26;;;;;;;;;;;;;;;;;;5074862;28;4964;-62
2022/12/05 03:39:54;;;;;;;;;;;;;;;;;;5084318;28;4568;-62
2022/12/05 03:42:20;;;;;;;;;;;;;;;;;;5087166;28;5187;-61
2022/12/05 03:44:50;;;;;;;;;;;;;;;;;;5076530;28;4974;-62
2022/12/05 03:47:26;;;;;;;;;;;;;;;;;;5092230;28;3245;-61
2022/12/05 03:49:53;;;;;;;;;;;;;;;;;;5102154;28;4449;-61
2022/12/05 03:52:28;;;;;;;;;;;;;;;;;;5079041;28;4592;-61
2022/12/05 03:54:55;;;;;;;;;;;;;;;;;;5092102;28;5017;-62
2022/12/05 03:57:21;;;;;;;;;;;;;;;;;;5076865;28;4985;-62
2022/12/05 03:59:49;;;;;;;;;;;;;;;;;;5082374;28;4638;-61
2022/12/05 04:02:16;;;;;;;;;;;;;;;;;;5082988;28;2922;-61
2022/12/05 04:04:46;;;;;;;;;;;;;;;;;;5083536;28;4558;-62
2022/12/05 04:07:11;;;;;;;;;;;;;;;;;;5088711;28;4470;-62
2022/12/05 04:09:38;;;;;;;;;;;;;;;;;;5087070;28;5103;-62
2022/12/05 04:12:05;;;;;;;;;;;;;;;;;;5085004;28;4838;-62
2022/12/05 04:14:33;;;;;;;;;;;;;;;;;;5072870;28;1208;-61
2022/12/05 04:17:03;;;;;;;;;;;;;;;;;;5082001;28;4946;-62
2022/12/05 04:22:22;;;;;;;;;;;;;;;;;;5074884;28;4628;-61
2022/12/05 04:27:39;;;;;;;;;;;;;;;;;;5083891;28;5053;-62
2022/12/05 04:30:09;;;;;;;;;;;;;;;;;;5075625;28;4742;-62
2022/12/05 04:32:39;;;;;;;;;;;;;;;;;;5078795;28;3277;-62
2022/12/05 04:35:06;;;;;;;;;;;;;;;;;;5083902;28;4906;-61
2022/12/05 04:37:31;;;;;;;;;;;;;;;;;;5085339;28;4871;-62
2022/12/05 04:39:58;;;;;;;;;;;;;;;;;;5072498;28;4446;-62
2022/12/05 04:42:24;;;;;;;;;;;;;;;;;;5094061;28;4965;-62
2022/12/05 04:44:52;;;;;;;;;;;;;;;;;;5081319;28;5337;-62
2022/12/05 04:47:17;;;;;;;;;;;;;;;;;;5094364;28;2286;-62
2022/12/05 04:49:43;;;;;;;;;;;;;;;;;;5105426;27;5232;-62
2022/12/05 04:52:09;;;;;;;;;;;;;;;;;;5090234;28;4969;-62
2022/12/05 04:54:37;;;;;;;;;;;;;;;;;;5075110;28;5058;-62
2022/12/05 04:57:08;;;;;;;;;;;;;;;;;;5095245;28;5109;-62
2022/12/05 04:59:33;;;;;;;;;;;;;;;;;;5081585;28;3232;-62
2022/12/05 05:02:00;;;;;;;;;;;;;;;;;;5083240;28;4373;-62
2022/12/05 05:04:28;;;;;;;;;;;;;;;;;;5093810;28;5089;-62
2022/12/05 05:06:53;;;;;;;;;;;;;;;;;;5100196;28;5097;-62
2022/12/05 05:09:18;;;;;;;;;;;;;;;;;;5081094;28;4563;-62
2022/12/05 05:11:43;;;;;;;;;;;;;;;;;;5080104;28;1489;-62
2022/12/05 05:14:09;;;;;;;;;;;;;;;;;;5077150;28;4954;-62
2022/12/05 05:16:37;;;;;;;;;;;;;;;;;;5094974;28;5126;-62
2022/12/05 05:19:02;;;;;;;;;;;;;;;;;;5079561;28;5133;-62
2022/12/05 05:21:28;;;;;;;;;;;;;;;;;;5087390;28;4493;-61
2022/12/05 05:23:54;;;;;;;;;;;;;;;;;;5081879;28;5517;-62
2022/12/05 05:26:19;;;;;;;;;;;;;;;;;;5087349;28;1162;-62
2022/12/05 05:28:44;;;;;;;;;;;;;;;;;;5083676;28;4927;-62
2022/12/05 05:31:10;;;;;;;;;;;;;;;;;;5084695;28;4490;-62
2022/12/05 05:33:35;;;;;;;;;;;;;;;;;;5082707;28;5537;-62
2022/12/05 05:36:11;;;;;;;;;;;;;;;;;;5091838;28;4463;-62
2022/12/05 05:38:43;;;;;;;;;;;;;;;;;;5078036;28;1379;-62
2022/12/05 05:41:18;;;;;;;;;;;;;;;;;;5068667;28;4795;-62
2022/12/05 05:43:43;;;;;;;;;;;;;;;;;;5101248;28;4594;-62
2022/12/05 05:46:08;;;;;;;;;;;;;;;;;;5077536;28;4910;-62
2022/12/05 05:48:33;;;;;;;;;;;;;;;;;;5083349;28;4945;-62
2022/12/05 05:51:00;;;;;;;;;;;;;;;;;;5087796;28;4617;-62
2022/12/05 05:53:25;;;;;;;;;;;;;;;;;;5084935;28;4671;-62
2022/12/05 05:55:50;;;;;;;;;;;;;;;;;;5091182;28;5016;-62
2022/12/05 05:58:15;;;;;;;;;;;;;;;;;;5087619;28;5675;-62
2022/12/05 06:00:41;;;;;;;;;;;;;;;;;;5071903;28;4596;-62
2022/12/05 06:03:06;;;;;;;;;;;;;;;;;;5079435;28;4965;-62
2022/12/05 06:05:31;;;;;;;;;;;;;;;;;;5085009;28;1484;-62
2022/12/05 06:07:57;;;;;;;;;;;;;;;;;;5083429;28;4962;-62
2022/12/05 06:10:22;;;;;;;;;;;;;;;;;;5089641;28;4517;-62
2022/12/05 06:12:47;;;;;;;;;;;;;;;;;;5089152;28;4448;-62
2022/12/05 06:15:12;;;;;;;;;;;;;;;;;;5087114;28;5068;-62
2022/12/05 06:17:38;;;;;;;;;;;;;;;;;;5081301;28;1217;-62
2022/12/05 06:20:07;;;;;;;;;;;;;;;;;;5083847;28;5110;-62
2022/12/05 06:22:32;;;;;;;;;;;;;;;;;;5071923;28;5006;-62
2022/12/05 06:24:57;;;;;;;;;;;;;;;;;;5082864;28;4601;-62
2022/12/05 06:27:23;;;;;;;;;;;;;;;;;;5083956;28;5051;-62
2022/12/05 06:29:48;;;;;;;;;;;;;;;;;;5071096;28;4516;-62
2022/12/05 06:32:13;;;;;;;;;;;;;;;;;;5075902;28;3396;-62
2022/12/05 06:34:39;;;;;;;;;;;;;;;;;;5076265;27;4460;-60
2022/12/05 06:37:04;;;;;;;;;;;;;;;;;;5079207;28;4619;-60
2022/12/05 06:39:29;;;;;;;;;;;;;;;;;;5085787;28;4889;-60
2022/12/05 06:41:54;;;;;;;;;;;;;;;;;;5087891;27;4481;-60
2022/12/05 06:44:20;;;;;;;;;;;;;;;;;;5101385;28;3371;-60
2022/12/05 06:46:46;;;;;;;;;;;;;;;;;;5077052;28;4964;-60
2022/12/05 06:49:11;;;;;;;;;;;;;;;;;;5087209;28;5004;-60
2022/12/05 06:51:36;;;;;;;;;;;;;;;;;;5076209;28;5032;-60
2022/12/05 06:54:02;;;;;;;;;;;;;;;;;;5078180;28;4904;-60
2022/12/05 06:56:28;;;;;;;;;;;;;;;;;;5075328;28;3203;-60
2022/12/05 06:58:54;;;;;;;;;;;;;;;;;;5068743;28;5297;-59
2022/12/05 07:01:39;;;;;;;;;;;;;;;;;;5079259;28;4957;-60
2022/12/05 07:04:05;;;;;;;;;;;;;;;;;;5067766;28;4985;-60
2022/12/05 07:06:31;;;;;;;;;;;;;;;;;;5074181;28;4611;-61
2022/12/05 07:08:57;;;;;;;;;;;;;;;;;;5069325;28;5823;-60
2022/12/05 07:11:22;;;;;;;;;;;;;;;;;;5085439;28;3262;-60
2022/12/05 07:13:47;;;;;;;;;;;;;;;;;;5085630;28;4921;-62
2022/12/05 07:16:13;;;;;;;;;;;;;;;;;;5074074;28;4908;-61
2022/12/05 07:18:38;;;;;;;;;;;;;;;;;;5071260;28;4955;-62
2022/12/05 07:21:04;;;;;;;;;;;;;;;;;;5081650;28;5161;-62
2022/12/05 07:23:29;;;;;;;;;;;;;;;;;;5073899;28;3472;-60
2022/12/05 07:25:56;;;;;;;;;;;;;;;;;;5081589;28;4750;-61
2022/12/05 07:28:21;;;;;;;;;;;;;;;;;;5070593;28;5386;-61
2022/12/05 07:30:47;;;;;;;;;;;;;;;;;;5082402;28;5160;-61
2022/12/05 07:33:12;;;;;;;;;;;;;;;;;;5080204;28;4968;-61
2022/12/05 07:35:37;;;;;;;;;;;;;;;;;;5078191;28;3160;-62
2022/12/05 07:38:02;;;;;;;;;;;;;;;;;;5076302;28;5001;-61
2022/12/05 07:40:28;;;;;;;;;;;;;;;;;;5085536;28;5103;-61
2022/12/05 07:42:53;;;;;;;;;;;;;;;;;;5079852;28;5035;-60
2022/12/05 07:45:19;;;;;;;;;;;;;;;;;;5074908;28;4904;-58
2022/12/05 07:47:44;;;;;;;;;;;;;;;;;;5078806;28;3890;-65
2022/12/05 07:50:10;;;;;;;;;;;;;;;;;;5078558;28;4890;-64
2022/12/05 07:52:35;;;;;;;;;;;;;;;;;;5071078;28;5553;-62
2022/12/05 07:55:00;;;;;;;;;;;;;;;;;;5072401;28;4761;-63
2022/12/05 07:57:28;;;;;;;;;;;;;;;;;;5068037;28;5006;-62
2022/12/05 07:59:53;;;;;;;;;;;;;;;;;;5072202;28;5205;-63
2022/12/05 08:02:19;;;;;;;;;;;;;;;;;;5073767;28;3512;-61
2022/12/05 08:04:44;;;;;;;;;;;;;;;;;;5075410;28;5100;-61
2022/12/05 08:07:10;;;;;;;;;;;;;;;;;;5077601;28;4951;-61
2022/12/05 08:09:35;;;;;;;;;;;;;;;;;;5081393;28;4563;-62
2022/12/05 08:12:01;;;;;;;;;;;;;;;;;;5077712;28;4764;-62
2022/12/05 08:14:26;;;;;;;;;;;;;;;;;;5075138;28;3354;-64
2022/12/05 08:16:51;;;;;;;;;;;;;;;;;;5080989;28;5137;-62
2022/12/05 08:19:17;;;;;;;;;;;;;;;;;;5082540;28;5058;-63
2022/12/05 08:21:42;;;;;;;;;;;;;;;;;;5072111;28;4551;-62
2022/12/05 08:24:07;;;;;;;;;;;;;;;;;;5070185;28;5100;-61
2022/12/05 08:26:33;;;;;;;;;;;;;;;;;;5071656;28;3427;-61
2022/12/05 08:29:18;;;;;;;;;;;;;;;;;;5079345;28;5136;-62
2022/12/05 08:31:46;;;;;;;;;;;;;;;;;;5075489;28;4864;-61
2022/12/05 08:34:11;;;;;;;;;;;;;;;;;;5073187;28;4921;-62
2022/12/05 08:36:37;;;;;;;;;;;;;;;;;;5076857;28;5065;-62
2022/12/05 08:39:03;;;;;;;;;;;;;;;;;;5079850;28;5264;-62
2022/12/05 08:41:28;;;;;;;;;;;;;;;;;;5075639;28;3400;-62
2022/12/05 08:43:56;;;;;;;;;;;;;;;;;;5075703;28;4954;-62
2022/12/05 08:46:22;;;;;;;;;;;;;;;;;;5072242;28;4584;-62
2022/12/05 08:48:47;;;;;;;;;;;;;;;;;;5079970;28;4978;-62
2022/12/05 08:51:12;;;;;;;;;;;;;;;;;;5076023;28;4994;-62
2022/12/05 08:53:38;;;;;;;;;;;;;;;;;;5081729;28;4578;-61
2022/12/05 08:56:04;;;;;;;;;;;;;;;;;;5070799;28;4494;-61
2022/12/05 08:58:29;;;;;;;;;;;;;;;;;;5093185;27;4560;-61
2022/12/05 09:00:54;;;;;;;;;;;;;;;;;;5071064;28;4889;-62
2022/12/05 09:03:19;;;;;;;;;;;;;;;;;;5065397;28;4628;-61
2022/12/05 09:05:45;;;;;;;;;;;;;;;;;;5093548;28;5252;-60
2022/12/05 09:08:11;;;;;;;;;;;;;;;;;;5080210;28;3440;-62
2022/12/05 09:10:36;;;;;;;;;;;;;;;;;;5079382;28;5160;-62
2022/12/05 09:13:02;;;;;;;;;;;;;;;;;;5082207;28;5304;-62
2022/12/05 09:15:27;;;;;;;;;;;;;;;;;;5076476;28;5085;-63
2022/12/05 09:17:52;;;;;;;;;;;;;;;;;;5083635;28;5061;-64
2022/12/05 09:20:17;;;;;;;;;;;;;;;;;;5079800;28;3420;-63
2022/12/05 09:22:43;;;;;;;;;;;;;;;;;;5075238;28;5020;-62
2022/12/05 09:25:08;;;;;;;;;;;;;;;;;;5074784;28;5364;-63
2022/12/05 09:27:33;;;;;;;;;;;;;;;;;;5078869;28;4543;-63
2022/12/05 09:29:59;;;;;;;;;;;;;;;;;;5078805;28;5581;-62
2022/12/05 09:32:24;;;;;;;;;;;;;;;;;;5078973;28;3423;-60
2022/12/05 09:34:49;;;;;;;;;;;;;;;;;;5080397;28;5227;-65
2022/12/05 09:37:16;;;;;;;;;;;;;;;;;;5070871;28;4964;-62
2022/12/05 09:39:42;;;;;;;;;;;;;;;;;;5086368;28;4520;-58
2022/12/05 09:42:07;;;;;;;;;;;;;;;;;;5077063;28;5030;-59
2022/12/05 09:44:41;;;;;;;;;;;;;;;;;;5080380;28;3263;-59
2022/12/05 09:47:27;;;;;;;;;;;;;;;;;;5076800;28;4959;-60
2022/12/05 09:50:12;;;;;;;;;;;;;;;;;;5079461;28;4858;-60
2022/12/05 09:52:38;;;;;;;;;;;;;;;;;;5076330;28;4671;-60
2022/12/05 09:55:05;;;;;;;;;;;;;;;;;;5079141;28;4573;-59
2022/12/05 09:57:34;;;;;;;;;;;;;;;;;;5074211;28;4793;-58
2022/12/05 09:59:59;;;;;;;;;;;;;;;;;;5074260;28;4998;-58
2022/12/05 10:02:25;;;;;;;;;;;;;;;;;;5063824;28;3492;-58
2022/12/05 10:04:55;;;;;;;;;;;;;;;;;;5081278;28;5048;-58
2022/12/05 10:07:29;;;;;;;;;;;;;;;;;;5074339;28;5026;-58
2022/12/05 10:10:13;;;;;;;;;;;;;;;;;;5074271;28;5019;-58
2022/12/05 10:12:48;;;;;;;;;;;;;;;;;;5076835;28;4442;-59
2022/12/05 10:15:26;;;;;;;;;;;;;;;;;;5073977;28;5248;-58
2022/12/05 10:17:52;;;;;;;;;;;;;;;;;;5077214;28;5048;-58
2022/12/05 10:20:32;;;;;;;;;;;;;;;;;;5075649;28;3477;-58
2022/12/05 10:22:59;;;;;;;;;;;;;;;;;;5078537;28;5087;-58
2022/12/05 10:25:25;;;;;;;;;;;;;;;;;;5075392;28;5080;-58
2022/12/05 10:28:00;;;;;;;;;;;;;;;;;;5092558;28;4634;-59
2022/12/05 10:30:32;;;;;;;;;;;;;;;;;;5077137;28;5027;-59
2022/12/05 10:32:58;;;;;;;;;;;;;;;;;;5075207;28;5086;-61
2022/12/05 10:35:23;;;;;;;;;;;;;;;;;;5078826;28;3588;-60
2022/12/05 10:37:50;;;;;;;;;;;;;;;;;;5078926;27;4462;-60
2022/12/05 10:40:15;;;;;;;;;;;;;;;;;;5084770;28;5022;-59
2022/12/05 10:42:40;;;;;;;;;;;;;;;;;;5080360;28;4495;-60
2022/12/05 10:45:07;;;;;;;;;;;;;;;;;;5075103;28;5638;-59
2022/12/05 10:47:32;;;;;;;;;;;;;;;;;;5062265;28;3254;-59
2022/12/05 10:49:59;;;;;;;;;;;;;;;;;;5095024;28;4436;-59
2022/12/05 10:52:24;;;;;;;;;;;;;;;;;;5078868;28;4500;-58
2022/12/05 10:55:02;;;;;;;;;;;;;;;;;;5078822;28;4516;-61
2022/12/05 10:57:29;;;;;;;;;;;;;;;;;;5079524;28;5085;-60
2022/12/05 10:59:55;;;;;;;;;;;;;;;;;;5084364;28;4610;-60
2022/12/05 11:02:23;;;;;;;;;;;;;;;;;;5082928;28;1242;-60
2022/12/05 11:04:49;;;;;;;;;;;;;;;;;;5078446;28;5363;-60
2022/12/05 11:07:23;;;;;;;;;;;;;;;;;;5080489;28;5032;-59
2022/12/05 11:09:48;;;;;;;;;;;;;;;;;;5088414;28;5018;-60
2022/12/05 11:12:14;;;;;;;;;;;;;;;;;;5066545;28;4608;-60
2022/12/05 11:14:39;;;;;;;;;;;;;;;;;;5082933;28;3197;-61
2022/12/05 11:17:04;;;;;;;;;;;;;;;;;;5075877;28;5080;-59
2022/12/05 11:19:31;;;;;;;;;;;;;;;;;;5091941;28;5403;-62
2022/12/05 11:21:56;;;;;;;;;;;;;;;;;;5080326;28;5502;-61
2022/12/05 11:24:31;;;;;;;;;;;;;;;;;;5073786;28;5630;-61
2022/12/05 11:26:57;;;;;;;;;;;;;;;;;;5079762;28;5102;-62
2022/12/05 11:29:30;;;;;;;;;;;;;;;;;;5086146;28;3230;-63
2022/12/05 11:31:55;;;;;;;;;;;;;;;;;;5079346;28;4726;-62
2022/12/05 11:34:22;;;;;;;;;;;;;;;;;;5078482;28;4658;-62
2022/12/05 11:36:49;;;;;;;;;;;;;;;;;;5075111;28;5476;-62
2022/12/05 11:39:14;;;;;;;;;;;;;;;;;;5068162;28;4588;-62
2022/12/05 11:41:39;;;;;;;;;;;;;;;;;;5081996;28;3645;-63
2022/12/05 11:44:07;;;;;;;;;;;;;;;;;;5084300;28;5042;-62
2022/12/05 11:46:44;;;;;;;;;;;;;;;;;;5075373;28;4865;-62
2022/12/05 11:49:33;;;;;;;;;;;;;;;;;;5078486;28;4605;-61
2022/12/05 11:51:58;;;;;;;;;;;;;;;;;;5084161;28;5157;-61
2022/12/05 11:54:37;;;;;;;;;;;;;;;;;;5075104;28;4780;-61
2022/12/05 11:57:21;;;;;;;;;;;;;;;;;;5070960;28;4686;-61
2022/12/05 11:59:46;;;;;;;;;;;;;;;;;;5074660;28;4577;-62
2022/12/05 12:02:14;;;;;;;;;;;;;;;;;;5068940;28;3492;-64
2022/12/05 12:04:46;;;;;;;;;;;;;;;;;;5080865;27;5077;-63
2022/12/05 12:07:44;;;;;;;;;;;;;;;;;;5076496;28;4871;-62
2022/12/05 12:10:09;;;;;;;;;;;;;;;;;;5062083;28;5078;-62
2022/12/05 12:12:34;;;;;;;;;;;;;;;;;;5077559;28;4847;-61
2022/12/05 12:15:02;;;;;;;;;;;;;;;;;;5075897;28;5067;-62
2022/12/05 12:17:34;;;;;;;;;;;;;;;;;;5082689;28;3391;-62
2022/12/05 12:19:59;;;;;;;;;;;;;;;;;;5079747;28;4527;-61
2022/12/05 12:22:34;;;;;;;;;;;;;;;;;;5078980;27;4611;-62
2022/12/05 12:25:02;;;;;;;;;;;;;;;;;;5074318;28;5140;-62
2022/12/05 12:27:30;;;;;;;;;;;;;;;;;;5078427;28;5100;-62
2022/12/05 12:29:55;;;;;;;;;;;;;;;;;;5077917;28;5158;-62
2022/12/05 12:32:21;;;;;;;;;;;;;;;;;;5074093;28;3377;-63
2022/12/05 12:35:05;;;;;;;;;;;;;;;;;;5087122;28;4727;-60
2022/12/05 12:37:40;;;;;;;;;;;;;;;;;;5071408;28;4936;-58
2022/12/05 12:40:21;;;;;;;;;;;;;;;;;;5072211;28;5542;-66
2022/12/05 12:42:49;;;;;;;;;;;;;;;;;;5074617;28;5052;-61
2022/12/05 12:45:23;;;;;;;;;;;;;;;;;;5079027;28;5095;-61
2022/12/05 12:47:48;;;;;;;;;;;;;;;;;;5071891;28;5093;-59
2022/12/05 12:50:17;;;;;;;;;;;;;;;;;;5096664;28;3399;-60
2022/12/05 12:52:49;;;;;;;;;;;;;;;;;;5081757;28;5145;-60
2022/12/05 12:55:15;;;;;;;;;;;;;;;;;;5078791;28;5040;-61
2022/12/05 12:57:47;;;;;;;;;;;;;;;;;;5075385;28;4496;-62
2022/12/05 13:00:31;;;;;;;;;;;;;;;;;;5067309;28;4927;-61
2022/12/05 13:03:00;;;;;;;;;;;;;;;;;;5080493;28;5276;-60
2022/12/05 13:05:52;;;;;;;;;;;;;;;;;;5069753;28;3529;-61
2022/12/05 13:08:20;;;;;;;;;;;;;;;;;;5072298;28;5298;-61
2022/12/05 13:10:45;;;;;;;;;;;;;;;;;;5075600;28;5212;-60
2022/12/05 13:13:18;;;;;;;;;;;;;;;;;;5103833;27;4506;-61
2022/12/05 13:15:49;;;;;;;;;;;;;;;;;;5084553;28;5136;-61
2022/12/05 13:18:18;;;;;;;;;;;;;;;;;;5068941;28;5041;-61
2022/12/05 13:20:43;;;;;;;;;;;;;;;;;;5069247;28;3809;-58
2022/12/05 13:23:11;;;;;;;;;;;;;;;;;;5074756;27;4624;-60
2022/12/05 13:25:39;;;;;;;;;;;;;;;;;;5089592;28;4844;-60
2022/12/05 13:28:05;;;;;;;;;;;;;;;;;;5078037;28;5208;-59
2022/12/05 13:30:31;;;;;;;;;;;;;;;;;;5074593;28;4918;-61
2022/12/05 13:32:57;;;;;;;;;;;;;;;;;;5077208;28;4945;-60
2022/12/05 13:43:49;;;;;;;;;;;;;;;;;;5075411;28;5071;-60
2022/12/05 13:46:33;;;;;;;;;;;;;;;;;;5072489;28;5114;-59
2022/12/05 13:49:00;;;;;;;;;;;;;;;;;;5082416;28;5139;-59
2022/12/05 13:51:32;;;;;;;;;;;;;;;;;;5090100;28;5109;-59
2022/12/05 13:54:24;;;;;;;;;;;;;;;;;;5085380;28;5132;-60
2022/12/05 13:57:03;;;;;;;;;;;;;;;;;;5079453;28;5086;-59
2022/12/05 13:59:47;;;;;;;;;;;;;;;;;;5073919;28;3409;-59
2022/12/05 14:02:31;;;;;;;;;;;;;;;;;;5077506;28;4414;-60
2022/12/05 14:04:56;;;;;;;;;;;;;;;;;;5074455;28;4995;-60
2022/12/05 14:07:39;;;;;;;;;;;;;;;;;;5076464;28;5088;-61
2022/12/05 14:10:04;;;;;;;;;;;;;;;;;;5083300;28;4890;-60
2022/12/05 14:12:45;;;;;;;;;;;;;;;;;;5072216;28;4875;-61
2022/12/05 14:15:27;;;;;;;;;;;;;;;;;;5073366;28;4597;-61
2022/12/05 14:18:11;;;;;;;;;;;;;;;;;;5074100;28;4630;-61
2022/12/05 14:20:54;;;;;;;;;;;;;;;;;;5078441;28;3428;-60
2022/12/05 14:23:32;;;;;;;;;;;;;;;;;;5072473;28;5350;-61
2022/12/05 14:25:57;;;;;;;;;;;;;;;;;;5079885;28;4959;-60
2022/12/05 14:28:41;;;;;;;;;;;;;;;;;;5076669;28;4857;-60
2022/12/05 14:31:16;;;;;;;;;;;;;;;;;;5074389;28;5523;-60
2022/12/05 14:33:41;;;;;;;;;;;;;;;;;;5077002;28;5037;-60
2022/12/05 14:36:07;;;;;;;;;;;;;;;;;;5078088;28;5060;-60
2022/12/05 14:38:33;;;;;;;;;;;;;;;;;;5079127;28;3190;-59
2022/12/05 14:41:11;;;;;;;;;;;;;;;;;;5084723;28;5134;-61
2022/12/05 14:43:37;;;;;;;;;;;;;;;;;;5086436;28;4844;-60
2022/12/05 14:46:03;;;;;;;;;;;;;;;;;;5075620;27;5231;-60
2022/12/05 14:48:35;;;;;;;;;;;;;;;;;;5070820;28;5291;-60
2022/12/05 14:51:00;;;;;;;;;;;;;;;;;;5081266;28;5115;-61
2022/12/05 14:53:30;;;;;;;;;;;;;;;;;;5087736;28;4590;-61
2022/12/05 14:55:55;;;;;;;;;;;;;;;;;;5089349;28;4991;-61
2022/12/05 14:58:23;;;;;;;;;;;;;;;;;;5077952;28;5044;-60
2022/12/05 15:00:55;;;;;;;;;;;;;;;;;;5064253;28;5131;-60
2022/12/05 15:03:22;;;;;;;;;;;;;;;;;;5073476;28;4797;-59
2022/12/05 15:05:47;;;;;;;;;;;;;;;;;;5075498;28;4529;-60
2022/12/05 15:08:13;;;;;;;;;;;;;;;;;;5087526;28;3734;-61
2022/12/05 15:10:38;;;;;;;;;;;;;;;;;;5107475;27;5007;-69
2022/12/05 15:13:04;;;;;;;;;;;;;;;;;;5079932;28;4840;-69
2022/12/05 15:15:32;;;;;;;;;;;;;;;;;;5075745;28;5036;-62
2022/12/05 15:18:18;;;;;;;;;;;;;;;;;;5075520;28;4748;-58
2022/12/05 15:21:03;;;;;;;;;;;;;;;;;;5073777;28;3278;-60
2022/12/05 15:23:44;;;;;;;;;;;;;;;;;;5076371;28;5047;-59
2022/12/05 15:26:28;;;;;;;;;;;;;;;;;;5073173;28;4414;-68
2022/12/05 15:28:57;;;;;;;;;;;;;;;;;;5074223;28;4921;-63
2022/12/05 15:31:24;;;;;;;;;;;;;;;;;;5115644;27;5004;-67
2022/12/05 15:33:50;;;;;;;;;;;;;;;;;;5079091;28;5026;-66
2022/12/05 15:36:15;;;;;;;;;;;;;;;;;;5071431;28;5473;-66
2022/12/05 15:38:41;;;;;;;;;;;;;;;;;;5108294;27;3339;-70
2022/12/05 15:41:08;;;;;;;;;;;;;;;;;;5069489;28;4967;-66
2022/12/05 15:43:36;;;;;;;;;;;;;;;;;;5084850;28;5134;-64
2022/12/05 15:46:13;;;;;;;;;;;;;;;;;;5078195;28;4887;-68
2022/12/05 15:48:38;;;;;;;;;;;;;;;;;;5071884;28;5029;-66
2022/12/05 15:51:03;;;;;;;;;;;;;;;;;;5082682;28;4581;-69
2022/12/05 15:53:29;;;;;;;;;;;;;;;;;;5081652;28;4531;-68
2022/12/05 15:56:04;;;;;;;;;;;;;;;;;;5073630;28;4584;-68
2022/12/05 15:58:42;;;;;;;;;;;;;;;;;;5079302;28;4529;-69
2022/12/05 16:01:07;;;;;;;;;;;;;;;;;;5077871;28;5169;-70
2022/12/05 16:03:33;;;;;;;;;;;;;;;;;;5068233;28;5111;-65
2022/12/05 16:06:03;;;;;;;;;;;;;;;;;;5073990;28;4770;-66
2022/12/05 16:08:39;;;;;;;;;;;;;;;;;;5087720;28;3285;-67
2022/12/05 16:11:10;;;;;;;;;;;;;;;;;;5081335;28;5976;-61
2022/12/05 16:13:36;;;;;;;;;;;;;;;;;;5085790;28;4983;-69
2022/12/05 16:16:01;;;;;;;;;;;;;;;;;;5082824;28;5033;-59
2022/12/05 16:18:30;;;;;;;;;;;;;;;;;;5090232;28;5028;-67
2022/12/05 16:20:55;;;;;;;;;;;;;;;;;;5082420;28;4885;-60
2022/12/05 16:23:25;;;;;;;;;;;;;;;;;;5078883;28;3564;-58
2022/12/05 16:25:51;;;;;;;;;;;;;;;;;;5080150;28;4751;-59
2022/12/05 16:28:17;;;;;;;;;;;;;;;;;;5092320;28;4650;-59
2022/12/05 16:30:55;;;;;;;;;;;;;;;;;;5078055;28;5214;-58
2022/12/05 16:33:21;;;;;;;;;;;;;;;;;;5095382;28;5246;-59
2022/12/05 16:35:47;;;;;;;;;;;;;;;;;;5075756;28;5031;-57
2022/12/05 16:38:15;;;;;;;;;;;;;;;;;;5071325;28;3431;-58
2022/12/05 16:40:50;;;;;;;;;;;;;;;;;;5072942;28;5463;-61
2022/12/05 16:43:26;;;;;;;;;;;;;;;;;;5071574;28;4552;-64
2022/12/05 16:45:52;;;;;;;;;;;;;;;;;;5076311;28;5095;-62
2022/12/05 16:48:27;;;;;;;;;;;;;;;;;;5091049;28;4827;-62
2022/12/05 16:50:53;;;;;;;;;;;;;;;;;;5080022;28;4433;-62
2022/12/05 16:53:25;;;;;;;;;;;;;;;;;;5079863;28;4528;-62
2022/12/05 16:55:51;;;;;;;;;;;;;;;;;;5074487;28;5035;-64
2022/12/05 16:58:19;;;;;;;;;;;;;;;;;;5086745;28;4699;-63
2022/12/05 17:00:44;;;;;;;;;;;;;;;;;;5073127;28;4920;-60
2022/12/05 17:03:12;;;;;;;;;;;;;;;;;;5082868;28;4559;-60
2022/12/05 17:05:39;;;;;;;;;;;;;;;;;;5073620;28;3705;-63
2022/12/05 17:08:04;;;;;;;;;;;;;;;;;;5072725;27;4360;-64
2022/12/05 17:10:29;;;;;;;;;;;;;;;;;;5079677;28;4835;-65
2022/12/05 17:12:55;;;;;;;;;;;;;;;;;;5110434;27;5071;-64
2022/12/05 17:15:20;;;;;;;;;;;;;;;;;;5078570;28;5095;-64
2022/12/05 17:17:45;;;;;;;;;;;;;;;;;;5083032;28;5251;-63
2022/12/05 17:20:13;;;;;;;;;;;;;;;;;;5081858;28;1173;-65
2022/12/05 17:22:39;;;;;;;;;;;;;;;;;;5077172;28;4908;-64
2022/12/05 17:25:13;;;;;;;;;;;;;;;;;;5073469;28;4713;-65